createdAt,value
2022-08-29T03:19:16.884Z,99160.44
2022-08-29T03:22:27.102Z,99159.91
2022-08-29T03:25:36.774Z,99158.69
2022-08-29T03:28:46.558Z,99159.34
2022-08-29T03:31:58.132Z,99154.66
2022-08-29T03:35:10.892Z,99147.91
2022-08-29T03:38:20.377Z,99152.44
2022-08-29T03:41:30.745Z,99154.22
2022-08-29T03:44:42.273Z,99156.91
2022-08-29T03:47:52.912Z,99160.38
2022-08-29T03:51:03.838Z,99156.91
2022-08-29T03:54:13.323Z,99157.78
2022-08-29T03:57:22.778Z,99152.84
2022-08-29T04:00:32.655Z,99153.06
2022-08-29T04:03:42.123Z,99145.47
2022-08-29T04:06:52.889Z,99143.78
2022-08-29T04:10:04.892Z,99156.13
2022-08-29T04:13:14.660Z,99149.63
2022-08-29T04:16:30.788Z,99154.44
2022-08-29T04:19:40.742Z,99149.75
2022-08-29T04:22:51.895Z,99149.31
2022-08-29T04:26:19.168Z,99159.91
2022-08-29T04:29:31.276Z,99158.25
2022-08-29T04:32:42.316Z,99161.94
2022-08-29T04:35:52.617Z,99158.34
2022-08-29T04:39:04.671Z,99159.69
2022-08-29T04:42:19.573Z,99163.38
2022-08-29T04:45:30.174Z,99162.50
2022-08-29T04:48:39.664Z,99163.50
2022-08-29T04:51:49.161Z,99156.44
2022-08-29T04:55:00.286Z,99170.53
2022-08-29T04:58:10.131Z,99161.44
2022-08-29T07:07:46.830Z,99181.63
2022-08-29T07:10:56.533Z,99184.31
2022-08-29T07:14:06.427Z,99185.25
2022-08-29T07:17:19.064Z,99179.63
2022-08-29T07:20:39.294Z,99187.28
2022-08-29T07:23:50.269Z,99187.94
2022-08-29T07:26:59.948Z,99192.97
2022-08-29T07:30:11.611Z,99190.88
2022-08-29T07:33:24.114Z,99190.13
2022-08-29T07:36:34.787Z,99188.72
2022-08-29T07:39:48.331Z,99182.41
2022-08-29T07:42:57.999Z,99190.34
2022-08-29T07:46:08.757Z,99184.41
2022-08-29T07:49:18.286Z,99175.50
2022-08-29T07:52:29.523Z,99185.94
2022-08-29T07:55:40.514Z,99189.34
2022-08-29T07:58:50.172Z,99188.25
2022-08-29T08:02:00.512Z,99183.56
2022-08-29T08:05:10.255Z,99188.66
2022-08-29T08:08:20.068Z,99189.16
2022-08-29T08:11:31.278Z,99180.47
2022-08-29T08:14:41.867Z,99184.53
2022-08-29T08:17:51.422Z,99182.38
2022-08-29T08:21:00.871Z,99186.06
2022-08-29T08:24:12.487Z,99186.25
2022-08-29T08:27:25.773Z,99190.56
2022-08-29T08:30:35.931Z,99180.81
2022-08-29T08:33:46.201Z,99175.06
2022-08-29T08:36:56.075Z,99178.13
2022-08-29T08:40:06.406Z,99174.47
2022-08-29T08:43:26.851Z,99182.19
2022-08-29T08:46:39.087Z,99176.16
2022-08-29T08:49:54.428Z,99176.34
2022-08-29T08:53:10.985Z,99182.59
2022-08-29T08:56:27.156Z,99178.06
2022-08-29T08:59:42.979Z,99183.44
2022-08-29T09:03:02.861Z,99181.06
2022-08-29T09:06:26.621Z,99173.94
2022-08-29T09:09:46.350Z,99168.22
2022-08-29T09:13:03.618Z,99162.88
2022-08-29T09:16:25.230Z,99172.28
2022-08-29T09:19:35.229Z,99169.09
2022-08-29T09:22:54.087Z,99160.69
2022-08-29T09:26:03.626Z,99164.28
2022-08-29T09:29:14.175Z,99165.78
2022-08-29T09:32:25.152Z,99162.47
2022-08-29T09:35:39.654Z,99149.84
2022-08-29T09:38:50.856Z,99168.63
2022-08-29T09:42:21.544Z,99171.31
2022-08-29T09:45:31.085Z,99168.88
2022-08-29T09:48:43.668Z,99165.34
2022-08-29T09:51:53.166Z,99163.66
2022-08-29T09:55:19.649Z,99165.13
2022-08-29T09:58:39.565Z,99152.88
2022-08-29T10:01:49.811Z,99147.31
2022-08-29T10:05:06.641Z,99144.16
2022-08-29T10:08:29.385Z,99137.34
2022-08-29T10:11:54.292Z,99129.25
2022-08-29T10:15:23.458Z,99145.97
2022-08-29T10:18:47.836Z,99150.53
2022-08-29T10:22:06.789Z,99150.63
2022-08-29T10:25:22.403Z,99141.72
2022-08-29T10:28:41.406Z,99135.66
2022-08-29T10:32:03.176Z,99133.06
2022-08-29T10:35:17.979Z,99134.75
2022-08-29T10:38:46.045Z,99125.91
2022-08-29T10:42:00.375Z,99126.69
2022-08-29T10:45:16.709Z,99124.13
2022-08-29T10:48:30.884Z,99108.25
2022-08-29T10:51:50.797Z,99122.47
2022-08-29T10:55:13.292Z,99119.81
2022-08-29T10:58:36.618Z,99107.31
2022-08-29T11:01:50.852Z,99109.91
2022-08-29T11:05:08.019Z,99118.00
2022-08-29T11:08:23.415Z,99122.47
2022-08-29T11:11:37.240Z,99119.81
2022-08-29T11:14:53.863Z,99116.28
2022-08-29T11:18:10.430Z,99116.28
2022-08-29T11:21:29.847Z,99118.94
2022-08-29T11:24:46.403Z,99120.59
2022-08-29T11:28:06.381Z,99118.81
2022-08-29T11:31:45.962Z,99113.41
2022-08-29T11:35:08.834Z,99114.47
2022-08-29T11:38:43.163Z,99110.06
2022-08-29T11:41:58.679Z,99099.50
2022-08-29T11:45:14.580Z,99099.47
2022-08-29T11:48:34.886Z,99095.97
2022-08-29T11:51:46.979Z,99095.09
2022-08-29T11:55:22.279Z,99083.59
2022-08-29T11:58:46.413Z,99080.03
2022-08-29T12:02:00.688Z,99080.91
2022-08-29T12:05:49.718Z,99071.13
2022-08-29T12:09:12.790Z,99074.63
2022-08-29T12:12:40.165Z,99075.31
2022-08-29T12:15:54.624Z,99067.34
2022-08-29T12:19:04.321Z,99076.25
2022-08-29T12:29:26.751Z,99055.81
2022-08-29T12:32:50.362Z,99062.00
2022-08-29T12:36:15.730Z,99056.44
2022-08-29T12:39:44.539Z,99042.22
2022-08-29T12:43:14.714Z,99040.78
2022-08-29T12:46:27.156Z,99043.94
2022-08-29T12:49:42.494Z,99035.22
2022-08-29T12:53:00.677Z,99041.34
2022-08-29T12:56:17.911Z,99036.84
2022-08-29T12:59:29.423Z,99031.28
2022-08-29T13:02:39.248Z,99040.25
2022-08-29T13:05:49.477Z,99040.22
2022-08-29T13:08:59.621Z,99036.91
2022-08-29T13:12:11.776Z,99042.28
2022-08-29T13:15:29.754Z,99032.56
2022-08-29T13:19:00.241Z,99036.97
2022-08-29T13:22:15.131Z,99022.66
2022-08-29T13:25:24.635Z,99028.16
2022-08-29T13:28:38.663Z,99022.78
2022-08-29T13:32:10.956Z,99010.13
2022-08-29T13:35:29.215Z,99009.38
2022-08-29T13:38:41.296Z,99013.88
2022-08-29T13:42:04.177Z,99013.66
2022-08-29T13:45:20.600Z,99016.16
2022-08-29T13:48:32.994Z,99005.19
2022-08-29T13:51:42.744Z,99005.94
2022-08-29T13:54:52.625Z,99004.44
2022-08-29T13:58:02.908Z,99006.41
2022-08-29T14:04:47.811Z,98999.59
2022-08-29T14:07:57.590Z,98996.13
2022-08-29T14:11:11.476Z,98989.09
2022-08-29T14:14:21.213Z,98987.13
2022-08-29T14:17:31.032Z,98983.47
2022-08-29T14:20:41.859Z,98992.88
2022-08-29T14:23:51.518Z,98995.78
2022-08-29T14:27:03.312Z,98988.97
2022-08-29T14:30:15.847Z,98988.16
2022-08-29T14:33:25.813Z,98985.53
2022-08-29T14:36:43.481Z,98977.56
2022-08-29T14:39:59.512Z,98974.84
2022-08-29T14:43:10.386Z,98969.50
2022-08-29T14:46:19.907Z,98976.53
2022-08-29T14:49:29.448Z,98975.59
2022-08-29T14:52:40.735Z,98979.03
2022-08-29T14:55:50.523Z,98980.75
2022-08-29T15:03:37.034Z,98974.56
2022-08-29T15:06:47.434Z,98966.63
2022-08-29T15:09:58.526Z,98955.19
2022-08-29T15:13:08.047Z,98954.31
2022-08-29T15:16:17.595Z,98952.56
2022-08-29T15:22:57.103Z,98960.38
2022-08-29T15:26:07.945Z,98955.94
2022-08-29T15:29:18.369Z,98960.34
2022-08-29T15:32:28.064Z,98950.59
2022-08-29T15:35:40.111Z,98947.13
2022-08-29T15:38:49.647Z,98948.88
2022-08-29T15:42:04.146Z,98948.88
2022-08-29T15:45:13.708Z,98940.16
2022-08-29T15:48:23.305Z,98951.72
2022-08-29T15:51:33.411Z,98943.00
2022-08-29T15:54:43.233Z,98950.13
2022-08-29T15:57:54.217Z,98942.25
2022-08-29T16:01:04.556Z,98936.97
2022-08-29T16:04:15.247Z,98942.25
2022-08-29T16:07:28.874Z,98936.09
2022-08-29T16:10:39.284Z,98931.69
2022-08-29T16:13:52.873Z,98936.97
2022-08-29T16:17:14.023Z,98921.09
2022-08-29T16:20:25.443Z,98922.81
2022-08-29T16:23:35.227Z,98918.41
2022-08-29T16:26:45.949Z,98917.56
2022-08-29T16:29:57.751Z,98926.31
2022-08-29T16:33:07.759Z,98926.09
2022-08-29T16:36:17.819Z,98925.84
2022-08-29T16:39:28.639Z,98925.66
2022-08-29T16:42:39.133Z,98930.81
2022-08-29T16:45:49.958Z,98923.63
2022-08-29T16:49:00.465Z,98916.56
2022-08-29T16:52:09.999Z,98920.06
2022-08-29T16:55:19.707Z,98921.78
2022-08-29T16:58:40.357Z,98929.63
2022-08-29T17:01:53.295Z,98919.88
2022-08-29T17:05:03.861Z,98923.41
2022-08-29T17:08:15.512Z,98919.97
2022-08-29T17:11:30.345Z,98909.50
2022-08-29T17:14:42.183Z,98910.41
2022-08-29T17:17:53.126Z,98920.06
2022-08-29T17:21:03.705Z,98920.88
2022-08-29T17:24:13.874Z,98930.38
2022-08-29T17:27:29.879Z,98923.84
2022-08-29T17:30:40.277Z,98924.47
2022-08-29T17:33:51.242Z,98933.03
2022-08-29T17:37:00.967Z,98925.69
2022-08-29T17:40:13.113Z,98927.13
2022-08-29T17:43:25.861Z,98925.78
2022-08-29T17:46:35.973Z,98934.94
2022-08-29T17:49:46.845Z,98936.28
2022-08-29T17:52:56.717Z,98928.59
2022-08-29T17:56:15.400Z,98935.91
2022-08-29T17:59:27.956Z,98938.88
2022-08-29T18:02:37.687Z,98942.56
2022-08-29T18:05:48.472Z,98943.88
2022-08-29T18:08:59.358Z,98948.56
2022-08-29T18:12:09.661Z,98951.50
2022-08-29T18:15:19.430Z,98957.94
2022-08-29T18:18:29.005Z,98962.69
2022-08-29T18:21:40.850Z,98960.38
2022-08-29T18:24:53.372Z,98961.59
2022-08-29T18:28:03.172Z,98964.53
2022-08-29T18:31:18.297Z,98968.31
2022-08-29T18:34:31.055Z,98962.50
2022-08-29T18:37:41.884Z,98971.59
2022-08-29T18:40:53.704Z,98974.53
2022-08-29T18:44:04.687Z,98972.34
2022-08-29T18:50:34.507Z,98986.09
2022-08-29T18:53:47.301Z,98987.34
2022-08-29T18:56:56.970Z,98988.47
2022-08-29T19:00:10.115Z,98996.59
2022-08-29T19:03:22.591Z,99008.13
2022-08-29T19:06:32.356Z,99009.16
2022-08-29T19:09:46.983Z,99001.72
2022-08-29T19:12:57.847Z,99007.38
2022-08-29T19:16:10.597Z,99017.34
2022-08-29T19:19:20.822Z,99023.84
2022-08-29T19:22:30.665Z,99023.22
2022-08-29T19:25:42.921Z,99024.38
2022-08-29T19:29:01.356Z,99029.38
2022-08-29T19:32:11.300Z,99031.78
2022-08-29T19:35:21.963Z,99038.34
2022-08-29T19:38:31.838Z,99044.66
